Sainte-Foy, Canada
Current Conditions -  °F | °C
As of 9:30 AM on Friday 28 Nov 2014 (Local Time) from CYQB Reporting Station
Light Snow Light Snow  
Wind Chill: 12°   Ceiling: 2500
Heat Index: 21°   Visibility: 4mi
Dew Point: 16°   Wind: 8mph
Humidity: 80%   Direction: 90°E
Pressure: 30.06"   Gusts: NA
Location:  46.78°N, 71.3°W
Report Text: CYQB 281430Z 09007KT 4SM -SN FEW018 BKN025 OVC035 M06/M09 A3006 RMK SC2SC4SC2 VIS NE 2 SLP184
Loading
Personal Weather Stations






























Interactive Weather Map New forecast layout! Learn more

10-Day Weather Forecast

Advertisements
Track Severe Weather on mobile